createdAt,value
2018-12-26T00:00:22.945Z,13.10
2018-12-26T00:02:50.520Z,16.83
2018-12-26T00:05:18.083Z,15.13
2018-12-26T00:07:45.672Z,13.20
2018-12-26T00:10:13.249Z,38.13
2018-12-26T00:12:40.795Z,22.90
2018-12-26T00:15:08.342Z,58.87
2018-12-26T00:17:35.912Z,13.73
2018-12-26T00:20:03.595Z,22.40
2018-12-26T00:22:31.092Z,65.17
2018-12-26T00:24:58.642Z,24.13
2018-12-26T00:27:26.183Z,17.87
2018-12-26T00:29:53.764Z,18.70
2018-12-26T00:32:21.311Z,12.83
2018-12-26T00:34:48.860Z,46.77
2018-12-26T00:37:16.436Z,33.53
2018-12-26T00:39:43.990Z,40.50
2018-12-26T00:42:11.564Z,32.97
2018-12-26T00:44:39.140Z,48.37
2018-12-26T00:47:06.688Z,12.90
2018-12-26T00:49:34.268Z,31.53
2018-12-26T00:52:01.825Z,26.73
2018-12-26T00:54:29.372Z,59.23
2018-12-26T00:56:56.960Z,102.00
2018-12-26T00:59:24.519Z,57.60
2018-12-26T01:01:52.091Z,72.63
2018-12-26T01:04:19.640Z,58.37
2018-12-26T01:06:47.218Z,22.83
2018-12-26T01:09:14.794Z,44.07
2018-12-26T01:11:42.341Z,16.37
2018-12-26T01:14:09.897Z,11.53
2018-12-26T01:16:38.429Z,13.10
2018-12-26T01:19:05.977Z,10.77
2018-12-26T01:21:34.545Z,11.60
2018-12-26T01:24:02.100Z,10.60
2018-12-26T01:26:29.671Z,11.20
2018-12-26T01:28:57.216Z,9.17
2018-12-26T01:31:24.768Z,10.50
2018-12-26T01:33:52.344Z,9.90
2018-12-26T01:36:19.925Z,10.07
2018-12-26T01:38:47.499Z,11.67
2018-12-26T01:41:15.047Z,10.87
2018-12-26T01:43:42.621Z,11.67
2018-12-26T01:46:10.196Z,13.50
2018-12-26T01:48:37.772Z,12.50
2018-12-26T01:51:05.423Z,13.00
2018-12-26T01:53:32.944Z,14.77
2018-12-26T01:56:00.483Z,12.70
2018-12-26T01:58:28.076Z,14.50
2018-12-26T02:00:55.632Z,14.97
2018-12-26T02:03:23.953Z,11.73
2018-12-26T02:05:51.536Z,12.27
2018-12-26T02:08:19.083Z,11.90
2018-12-26T02:10:46.651Z,17.20
2018-12-26T02:13:14.224Z,16.37
2018-12-26T02:15:42.531Z,11.57
2018-12-26T02:18:10.079Z,14.40
2018-12-26T02:20:37.651Z,12.93
2018-12-26T02:23:05.204Z,17.80
2018-12-26T02:25:32.899Z,14.07
2018-12-26T02:28:00.499Z,15.00
2018-12-26T02:30:28.057Z,13.07
2018-12-26T02:32:55.604Z,14.77
2018-12-26T02:35:23.183Z,12.40
2018-12-26T02:37:50.794Z,12.47
2018-12-26T02:40:18.388Z,28.13
2018-12-26T02:42:45.950Z,12.23
2018-12-26T02:45:13.547Z,12.50
2018-12-26T02:47:41.106Z,131.37
2018-12-26T02:50:08.661Z,278.80
2018-12-26T02:52:36.244Z,327.90
2018-12-26T02:55:03.806Z,196.07
2018-12-26T02:57:31.384Z,370.87
2018-12-26T02:59:59.708Z,126.28
2018-12-26T03:02:27.257Z,69.47
2018-12-26T03:04:54.854Z,15.75
2018-12-26T03:07:22.466Z,18.00
2018-12-26T03:09:50.052Z,12.50
2018-12-26T03:12:17.596Z,17.30
2018-12-26T03:14:45.185Z,13.03
2018-12-26T03:17:12.764Z,11.12
2018-12-26T03:19:40.337Z,11.53
2018-12-26T03:22:08.655Z,14.93
2018-12-26T03:24:36.239Z,13.20
2018-12-26T03:27:03.808Z,14.87
2018-12-26T03:29:31.359Z,11.93
2018-12-26T03:31:58.936Z,11.53
2018-12-26T03:34:27.471Z,12.80
2018-12-26T03:36:55.024Z,11.30
2018-12-26T03:39:22.605Z,13.50
2018-12-26T03:41:50.156Z,13.43
2018-12-26T03:44:17.728Z,12.47
2018-12-26T03:46:45.280Z,13.30
2018-12-26T03:49:12.855Z,12.37
2018-12-26T03:51:40.427Z,14.30
2018-12-26T03:54:07.998Z,13.57
2018-12-26T03:56:35.571Z,12.93
2018-12-26T03:59:03.136Z,10.50
2018-12-26T04:01:30.681Z,11.80
2018-12-26T04:03:58.261Z,13.50
2018-12-26T04:06:25.799Z,11.40
2018-12-26T04:08:53.396Z,14.23
2018-12-26T04:11:20.949Z,13.47
2018-12-26T04:13:48.507Z,13.43
2018-12-26T04:16:16.088Z,15.27
2018-12-26T04:18:43.673Z,18.27
2018-12-26T04:21:11.289Z,18.27
2018-12-26T04:23:38.840Z,17.63
2018-12-26T04:26:06.432Z,18.50
2018-12-26T04:28:33.990Z,23.03
2018-12-26T04:31:02.302Z,21.93
2018-12-26T04:33:29.884Z,14.83
2018-12-26T04:35:57.466Z,18.83
2018-12-26T04:38:25.040Z,17.50
2018-12-26T04:40:53.357Z,18.00
2018-12-26T04:43:20.944Z,19.63
2018-12-26T04:45:48.528Z,33.80
2018-12-26T04:48:16.108Z,64.60
2018-12-26T04:50:43.767Z,181.57
2018-12-26T04:53:11.256Z,30.93
2018-12-26T04:55:38.848Z,18.57
2018-12-26T04:58:06.411Z,36.03
2018-12-26T05:00:34.002Z,24.80
2018-12-26T05:03:02.575Z,24.50
2018-12-26T05:05:30.432Z,43.77
2018-12-26T05:07:58.023Z,124.00
2018-12-26T05:10:25.595Z,80.47
2018-12-26T05:12:53.177Z,31.03
2018-12-26T05:15:20.745Z,31.03
2018-12-26T05:17:48.822Z,61.50
2018-12-26T05:20:16.041Z,34.73
2018-12-26T05:22:43.634Z,36.10
2018-12-26T05:25:13.902Z,24.70
2018-12-26T05:27:41.451Z,41.23
2018-12-26T05:30:10.023Z,70.70
2018-12-26T05:32:37.586Z,42.93
2018-12-26T05:35:05.168Z,35.33
2018-12-26T05:37:32.841Z,126.10
2018-12-26T05:40:00.440Z,116.03
2018-12-26T05:42:27.989Z,173.33
2018-12-26T05:44:55.544Z,130.67
2018-12-26T05:47:23.895Z,182.00
2018-12-26T05:49:51.461Z,74.50
2018-12-26T05:52:19.057Z,99.67
2018-12-26T05:54:46.652Z,176.17
2018-12-26T05:57:14.234Z,110.60
2018-12-26T05:59:41.823Z,84.63
2018-12-26T06:02:09.379Z,128.60
2018-12-26T06:04:36.969Z,35.57
2018-12-26T06:07:05.558Z,19.50
2018-12-26T06:09:33.148Z,17.63
2018-12-26T06:12:00.700Z,15.37
2018-12-26T06:14:28.244Z,24.70
2018-12-26T06:16:55.829Z,50.53
2018-12-26T06:19:24.157Z,67.43
2018-12-26T06:21:51.735Z,48.17
2018-12-26T06:24:19.301Z,106.90
2018-12-26T06:26:46.888Z,85.80
2018-12-26T06:29:14.465Z,79.37
2018-12-26T06:31:42.026Z,65.40
2018-12-26T06:34:09.611Z,35.53
2018-12-26T06:36:37.174Z,95.90
2018-12-26T06:39:04.762Z,152.30
2018-12-26T06:41:33.089Z,154.07
2018-12-26T06:44:00.693Z,180.55
2018-12-26T06:46:29.019Z,110.90
2018-12-26T06:48:56.600Z,38.67
2018-12-26T06:51:24.165Z,79.45
2018-12-26T06:53:51.752Z,55.03
2018-12-26T06:56:19.337Z,76.20
2018-12-26T06:58:46.992Z,28.15
2018-12-26T07:01:14.572Z,33.87
2018-12-26T07:03:42.125Z,27.90
2018-12-26T07:06:09.713Z,34.67
2018-12-26T07:08:37.303Z,102.27
2018-12-26T07:11:05.637Z,60.40
2018-12-26T07:13:33.233Z,126.00
2018-12-26T07:16:00.829Z,51.90
2018-12-26T07:18:28.386Z,38.22
2018-12-26T07:20:56.017Z,16.10
2018-12-26T07:23:23.576Z,43.13
2018-12-26T07:25:51.926Z,18.80
2018-12-26T07:28:20.262Z,19.27
2018-12-26T07:30:47.846Z,42.50
2018-12-26T07:33:15.460Z,28.95
2018-12-26T07:35:43.009Z,15.60
2018-12-26T07:38:10.606Z,30.77
2018-12-26T07:40:38.159Z,32.77
2018-12-26T07:43:05.749Z,30.77
2018-12-26T07:45:33.292Z,99.00
2018-12-26T07:48:00.887Z,75.30
2018-12-26T07:50:29.217Z,53.20
2018-12-26T07:52:56.780Z,25.25
2018-12-26T07:55:24.370Z,19.17
2018-12-26T07:57:51.941Z,13.20
2018-12-26T08:00:19.528Z,13.68
2018-12-26T08:02:47.112Z,12.00
2018-12-26T08:05:14.679Z,11.90
2018-12-26T08:07:42.369Z,12.37
2018-12-26T08:10:09.918Z,12.75
2018-12-26T08:12:37.555Z,14.25
2018-12-26T08:15:10.546Z,20.92
2018-12-26T08:17:32.760Z,18.83
2018-12-26T08:20:00.331Z,19.90
2018-12-26T08:22:28.723Z,22.03
2018-12-26T08:24:56.280Z,20.48
2018-12-26T08:27:23.860Z,16.23
2018-12-26T08:29:51.413Z,13.98
2018-12-26T08:32:19.013Z,16.70
2018-12-26T08:34:46.569Z,16.77
2018-12-26T08:37:14.156Z,71.80
2018-12-26T08:39:41.734Z,74.90
2018-12-26T08:42:10.052Z,95.67
2018-12-26T08:44:37.655Z,66.18
2018-12-26T08:47:05.241Z,14.07
2018-12-26T08:49:33.793Z,18.58
2018-12-26T08:52:02.112Z,16.67
2018-12-26T08:54:29.696Z,15.35
2018-12-26T08:56:57.288Z,18.00
2018-12-26T08:59:25.646Z,15.95
2018-12-26T09:01:53.214Z,17.62
2018-12-26T09:04:20.771Z,20.10
2018-12-26T09:06:48.360Z,28.67
2018-12-26T09:09:15.916Z,19.87
2018-12-26T09:11:43.496Z,16.10
2018-12-26T09:14:11.048Z,22.50
2018-12-26T09:16:38.639Z,22.67
2018-12-26T09:19:06.189Z,25.40
2018-12-26T09:21:33.765Z,21.33
2018-12-26T09:24:01.329Z,20.50
2018-12-26T09:26:28.884Z,17.90
2018-12-26T09:28:57.459Z,19.70
2018-12-26T09:31:25.947Z,21.50
2018-12-26T09:33:53.529Z,20.93
2018-12-26T09:36:21.845Z,21.60
2018-12-26T09:38:49.444Z,19.70
2018-12-26T09:43:50.933Z,25.13
2018-12-26T09:46:18.506Z,31.40
2018-12-26T09:48:46.097Z,33.70
2018-12-26T09:51:13.661Z,33.10
2018-12-26T09:53:41.262Z,28.07
2018-12-26T09:56:08.816Z,22.73
2018-12-26T09:58:36.407Z,22.20
2018-12-26T10:01:04.034Z,22.00
2018-12-26T10:03:31.621Z,28.00
2018-12-26T10:05:59.176Z,24.00
2018-12-26T10:08:26.757Z,28.70
2018-12-26T10:10:54.320Z,46.73
2018-12-26T10:13:21.908Z,27.27
2018-12-26T10:15:49.493Z,22.07
2018-12-26T10:18:17.054Z,21.37
2018-12-26T10:20:44.609Z,24.70
2018-12-26T10:23:12.185Z,19.17
2018-12-26T10:25:39.768Z,22.07
2018-12-26T10:28:07.397Z,21.63
2018-12-26T10:30:34.952Z,19.17
2018-12-26T10:33:02.542Z,20.63
2018-12-26T10:35:30.152Z,23.93
2018-12-26T10:37:57.751Z,23.87
2018-12-26T10:40:25.316Z,28.20
2018-12-26T10:42:52.885Z,24.30
2018-12-26T10:45:20.478Z,24.70
2018-12-26T10:47:48.807Z,20.43
2018-12-26T10:50:16.392Z,21.67
2018-12-26T10:52:43.961Z,24.90
2018-12-26T10:55:11.869Z,23.60
2018-12-26T10:57:40.437Z,19.53
2018-12-26T11:00:07.988Z,21.63
2018-12-26T11:02:35.667Z,18.03
2018-12-26T11:05:04.225Z,19.53
2018-12-26T11:07:31.806Z,17.75
2018-12-26T11:09:59.403Z,22.50
2018-12-26T11:12:26.957Z,20.37
2018-12-26T11:14:54.508Z,22.33
2018-12-26T11:17:22.092Z,21.70
2018-12-26T11:19:49.651Z,24.13
2018-12-26T11:22:17.259Z,23.40
2018-12-26T11:24:44.846Z,19.80
2018-12-26T11:27:12.485Z,23.03
2018-12-26T11:29:41.985Z,21.10
2018-12-26T11:32:09.557Z,22.70
2018-12-26T11:34:37.204Z,18.33
2018-12-26T11:37:04.765Z,18.70
2018-12-26T11:39:32.332Z,20.90
2018-12-26T11:41:59.909Z,21.33
2018-12-26T11:44:28.266Z,22.50
2018-12-26T11:46:56.948Z,17.47
2018-12-26T11:49:23.436Z,19.00
2018-12-26T11:51:51.014Z,21.10
2018-12-26T11:54:18.573Z,20.80
2018-12-26T11:56:46.160Z,23.70
2018-12-26T11:59:13.716Z,18.83
2018-12-26T12:01:41.269Z,23.55
2018-12-26T12:04:09.815Z,33.60
2018-12-26T12:06:37.384Z,26.13
2018-12-26T12:09:04.969Z,18.97
2018-12-26T12:11:32.512Z,22.60
2018-12-26T12:14:00.094Z,21.83
2018-12-26T12:16:28.680Z,21.20
2018-12-26T12:18:57.035Z,18.03
2018-12-26T12:21:24.592Z,20.50
2018-12-26T12:23:52.188Z,20.77
2018-12-26T12:26:20.543Z,18.90
2018-12-26T12:28:48.097Z,20.47
2018-12-26T12:31:15.695Z,18.43
2018-12-26T12:33:43.258Z,19.20
2018-12-26T12:36:12.969Z,19.08
2018-12-26T12:38:38.472Z,20.20
2018-12-26T12:41:06.042Z,20.10
2018-12-26T12:43:33.584Z,19.33
2018-12-26T12:46:01.169Z,22.00
2018-12-26T12:48:28.804Z,19.23
2018-12-26T12:50:57.354Z,22.63
2018-12-26T12:53:24.928Z,20.90
2018-12-26T12:55:52.481Z,21.20
2018-12-26T12:58:20.826Z,26.10
2018-12-26T13:00:48.409Z,26.83
2018-12-26T13:03:15.984Z,23.50
2018-12-26T13:05:43.535Z,21.97
2018-12-26T13:08:13.277Z,21.33
2018-12-26T13:10:39.489Z,20.13
2018-12-26T13:13:07.069Z,20.70
2018-12-26T13:15:34.626Z,23.30
2018-12-26T13:18:02.212Z,21.43
2018-12-26T13:20:29.769Z,23.50
2018-12-26T13:22:57.325Z,21.87
2018-12-26T13:25:24.908Z,25.20
2018-12-26T13:27:52.461Z,20.17
2018-12-26T13:30:20.814Z,25.20
2018-12-26T13:32:48.372Z,21.30
2018-12-26T13:35:15.964Z,23.57
2018-12-26T13:37:43.519Z,21.20
2018-12-26T13:40:11.959Z,25.92
2018-12-26T13:42:39.542Z,21.87
2018-12-26T13:45:07.133Z,20.90
2018-12-26T13:47:34.686Z,21.10
2018-12-26T13:50:02.271Z,21.87
2018-12-26T13:52:30.132Z,19.77
2018-12-26T13:54:57.704Z,23.63
2018-12-26T13:57:25.296Z,21.20
2018-12-26T14:00:02.105Z,21.87
2018-12-26T14:02:22.033Z,24.77
2018-12-26T14:04:49.584Z,22.13
2018-12-26T14:07:18.145Z,24.87
2018-12-26T14:09:45.714Z,24.47
2018-12-26T14:12:13.305Z,24.70
2018-12-26T14:14:40.853Z,24.20
2018-12-26T14:17:10.203Z,25.00
2018-12-26T14:19:38.518Z,25.37
2018-12-26T14:22:06.102Z,27.10
2018-12-26T14:24:34.673Z,27.03
2018-12-26T14:27:02.259Z,30.83
2018-12-26T14:29:29.841Z,29.20
2018-12-26T14:31:57.404Z,29.90
2018-12-26T14:34:25.047Z,34.17
2018-12-26T14:36:52.643Z,29.67
2018-12-26T14:39:20.971Z,30.73
2018-12-26T14:41:48.555Z,33.78
2018-12-26T14:44:17.165Z,32.20
2018-12-26T14:46:44.728Z,31.57
2018-12-26T14:49:12.310Z,31.43
2018-12-26T14:51:40.623Z,38.90
2018-12-26T14:54:08.206Z,42.20
2018-12-26T14:56:35.820Z,33.67
2018-12-26T14:59:03.393Z,35.10
2018-12-26T15:01:30.969Z,34.90
2018-12-26T15:03:58.609Z,42.50
2018-12-26T15:06:26.188Z,33.87
2018-12-26T15:08:53.744Z,38.73
2018-12-26T15:11:21.324Z,40.10
2018-12-26T15:13:48.890Z,43.27
2018-12-26T15:16:16.497Z,38.17
2018-12-26T15:18:44.091Z,35.43
2018-12-26T15:21:11.649Z,34.80
2018-12-26T15:23:39.230Z,34.90
2018-12-26T15:26:06.821Z,35.17
2018-12-26T15:28:34.373Z,39.17
2018-12-26T15:31:01.960Z,38.43
2018-12-26T15:33:30.547Z,31.70
2018-12-26T15:35:58.107Z,34.73
2018-12-26T15:38:25.696Z,35.20
2018-12-26T15:40:54.040Z,35.23
2018-12-26T15:43:21.675Z,31.80
2018-12-26T15:45:49.247Z,39.20
2018-12-26T15:48:16.846Z,55.30
2018-12-26T15:50:44.409Z,36.57
2018-12-26T15:53:11.998Z,44.40
2018-12-26T15:55:39.552Z,44.53
2018-12-26T15:58:07.133Z,40.70
2018-12-26T16:00:37.547Z,51.63
2018-12-26T16:03:02.321Z,49.33
2018-12-26T16:05:30.225Z,48.20
2018-12-26T16:07:57.941Z,53.97
2018-12-26T16:10:26.460Z,40.00
2018-12-26T16:12:54.045Z,33.80
2018-12-26T16:15:21.601Z,37.30
2018-12-26T16:17:50.181Z,40.60
2018-12-26T16:20:17.764Z,42.10
2018-12-26T16:22:45.317Z,39.80
2018-12-26T16:25:12.915Z,44.70
2018-12-26T16:27:40.473Z,44.63
2018-12-26T16:30:08.059Z,43.00
2018-12-26T16:32:35.636Z,38.97
2018-12-26T16:35:03.217Z,45.77
2018-12-26T16:37:30.769Z,55.63
2018-12-26T16:39:59.125Z,43.87
2018-12-26T16:42:26.677Z,47.10
2018-12-26T16:44:54.252Z,51.27
2018-12-26T16:47:21.837Z,46.03
2018-12-26T16:49:49.395Z,55.07
2018-12-26T16:52:16.985Z,45.97
2018-12-26T16:54:44.548Z,55.13
2018-12-26T16:57:12.140Z,45.03
2018-12-26T16:59:39.761Z,47.97
2018-12-26T17:02:07.426Z,98.57
2018-12-26T17:04:34.990Z,73.50
2018-12-26T17:07:02.577Z,98.40
2018-12-26T17:09:30.157Z,55.10
2018-12-26T17:11:57.730Z,158.27
2018-12-26T17:14:25.311Z,72.13
2018-12-26T17:16:52.896Z,116.10
2018-12-26T17:19:21.245Z,101.03
2018-12-26T17:21:48.813Z,96.30
2018-12-26T17:24:16.941Z,89.07
2018-12-26T17:26:44.017Z,87.47
2018-12-26T17:29:11.600Z,77.43
2018-12-26T17:31:39.241Z,178.60
2018-12-26T17:34:06.821Z,126.60
2018-12-26T17:36:34.389Z,85.37
2018-12-26T17:39:02.937Z,57.80
2018-12-26T17:41:30.531Z,66.67
2018-12-26T17:43:58.116Z,197.60
2018-12-26T17:46:25.689Z,137.03
2018-12-26T17:48:53.289Z,187.47
2018-12-26T17:51:20.872Z,73.43
2018-12-26T17:53:50.848Z,61.40
2018-12-26T17:56:19.289Z,109.53
2018-12-26T17:58:54.677Z,58.30
2018-12-26T18:01:29.849Z,247.67
2018-12-26T18:03:57.441Z,193.70
2018-12-26T18:06:24.997Z,400.63
2018-12-26T18:08:52.807Z,119.03
2018-12-26T18:11:20.416Z,90.60
2018-12-26T18:13:47.972Z,192.27
2018-12-26T18:16:15.553Z,82.83
2018-12-26T18:18:43.109Z,99.80
2018-12-26T18:21:10.692Z,116.50
2018-12-26T18:23:38.401Z,63.23
2018-12-26T18:26:05.934Z,97.33
2018-12-26T18:28:33.484Z,193.77
2018-12-26T18:31:01.090Z,143.60
2018-12-26T18:33:28.669Z,85.23
2018-12-26T18:35:57.014Z,112.30
2018-12-26T18:38:24.595Z,85.63
2018-12-26T18:40:52.164Z,101.23
2018-12-26T18:43:19.748Z,136.13
2018-12-26T18:45:47.333Z,155.67
2018-12-26T18:48:15.901Z,247.47
2018-12-26T18:50:43.461Z,125.60
2018-12-26T18:53:11.026Z,106.33
2018-12-26T18:55:38.602Z,184.37
2018-12-26T18:58:06.168Z,95.13
2018-12-26T19:00:33.756Z,63.00
2018-12-26T19:03:01.341Z,84.30
2018-12-26T19:05:28.904Z,70.33
2018-12-26T19:07:56.502Z,131.90
2018-12-26T19:10:24.084Z,101.87
2018-12-26T19:12:52.645Z,80.07
2018-12-26T19:15:20.248Z,134.27
2018-12-26T19:17:47.834Z,87.53
2018-12-26T19:20:15.406Z,145.07
2018-12-26T19:22:42.989Z,262.97
2018-12-26T19:25:10.585Z,241.70
2018-12-26T19:27:38.264Z,138.47
2018-12-26T19:30:05.881Z,109.20
2018-12-26T19:32:33.441Z,283.00
2018-12-26T19:35:01.028Z,138.73
2018-12-26T19:37:28.584Z,127.73
2018-12-26T19:39:56.193Z,156.07
2018-12-26T19:42:23.766Z,122.23
2018-12-26T19:44:51.362Z,239.10
2018-12-26T19:47:18.935Z,93.93
2018-12-26T19:49:46.497Z,84.93
2018-12-26T19:52:14.091Z,87.73
2018-12-26T19:54:41.685Z,58.80
2018-12-26T19:57:09.277Z,101.17
2018-12-26T19:59:36.838Z,89.90
2018-12-26T20:02:04.422Z,92.40
2018-12-26T20:04:32.183Z,73.97
2018-12-26T20:06:59.826Z,94.70
2018-12-26T20:09:27.421Z,126.50
2018-12-26T20:11:55.093Z,112.97
2018-12-26T20:14:22.682Z,144.73
2018-12-26T20:16:50.265Z,128.87
2018-12-26T20:19:17.895Z,188.37
2018-12-26T20:21:45.453Z,153.63
2018-12-26T20:24:13.087Z,133.50
2018-12-26T20:26:40.665Z,110.60
2018-12-26T20:29:08.257Z,108.90
2018-12-26T20:31:35.874Z,158.17
2018-12-26T20:34:03.519Z,232.60
2018-12-26T20:36:31.086Z,157.00
2018-12-26T20:38:59.660Z,207.10
2018-12-26T20:41:28.026Z,157.53
2018-12-26T20:43:55.604Z,209.27
2018-12-26T20:46:23.193Z,103.93
2018-12-26T20:48:50.792Z,175.17
2018-12-26T20:51:19.148Z,274.87
2018-12-26T20:53:46.736Z,199.20
2018-12-26T20:56:14.336Z,86.10
2018-12-26T20:58:41.922Z,133.07
2018-12-26T21:01:09.488Z,95.60
2018-12-26T21:03:37.101Z,176.93
2018-12-26T21:06:04.673Z,115.30
2018-12-26T21:08:32.257Z,114.43
2018-12-26T21:11:00.393Z,165.80
2018-12-26T21:13:27.975Z,82.43
2018-12-26T21:15:55.559Z,155.50
2018-12-26T21:18:23.887Z,63.30
2018-12-26T21:20:51.479Z,160.87
2018-12-26T21:23:19.811Z,204.23
2018-12-26T21:25:47.479Z,224.47
2018-12-26T21:28:15.053Z,163.37
2018-12-26T21:30:42.664Z,180.87
2018-12-26T21:33:10.865Z,80.17
2018-12-26T21:35:38.475Z,111.37
2018-12-26T21:38:06.061Z,235.47
2018-12-26T21:40:33.610Z,87.47
2018-12-26T21:43:01.198Z,178.17
2018-12-26T21:45:28.752Z,319.80
2018-12-26T21:47:56.328Z,133.00
2018-12-26T21:50:23.914Z,95.37
2018-12-26T21:52:51.504Z,164.87
2018-12-26T21:55:19.067Z,332.20
2018-12-26T21:57:46.653Z,98.43
2018-12-26T22:00:14.406Z,119.03
2018-12-26T22:02:43.033Z,78.03
2018-12-26T22:05:10.590Z,67.83
2018-12-26T22:07:38.178Z,83.10
2018-12-26T22:10:05.743Z,67.05
2018-12-26T22:12:33.524Z,99.10
2018-12-26T22:15:01.150Z,38.28
2018-12-26T22:17:28.729Z,33.07
2018-12-26T22:19:56.329Z,37.03
2018-12-26T22:22:23.885Z,81.70
2018-12-26T22:24:51.440Z,53.50
2018-12-26T22:27:19.073Z,114.23
2018-12-26T22:29:46.628Z,58.17
2018-12-26T22:32:14.214Z,68.70
2018-12-26T22:34:41.778Z,31.77
2018-12-26T22:37:09.328Z,57.70
2018-12-26T22:39:36.921Z,35.17
2018-12-26T22:42:04.473Z,34.87
2018-12-26T22:44:33.790Z,34.42
2018-12-26T22:47:01.344Z,44.53
2018-12-26T22:49:28.945Z,52.77
2018-12-26T22:51:56.500Z,31.50
2018-12-26T22:54:24.451Z,31.70
2018-12-26T22:56:51.995Z,29.90
2018-12-26T22:59:19.590Z,31.30
2018-12-26T23:01:47.169Z,33.10
2018-12-26T23:04:14.761Z,31.50
2018-12-26T23:06:42.329Z,29.60
2018-12-26T23:09:11.048Z,38.15
2018-12-26T23:11:39.617Z,38.07
2018-12-26T23:14:07.207Z,32.40
2018-12-26T23:16:34.810Z,35.93
2018-12-26T23:19:02.407Z,34.80
2018-12-26T23:21:29.964Z,37.60
2018-12-26T23:23:57.549Z,35.03
2018-12-26T23:26:27.046Z,36.03
2018-12-26T23:28:54.641Z,38.42
2018-12-26T23:31:22.201Z,37.57
2018-12-26T23:33:49.762Z,36.03
2018-12-26T23:36:17.355Z,31.00
2018-12-26T23:38:44.917Z,35.15
2018-12-26T23:41:12.553Z,45.00
2018-12-26T23:43:40.118Z,32.23
2018-12-26T23:46:07.678Z,36.67
2018-12-26T23:48:36.260Z,35.70
2018-12-26T23:51:03.846Z,35.50
2018-12-26T23:53:31.435Z,34.70
2018-12-26T23:55:59.758Z,31.40
2018-12-26T23:58:27.357Z,29.85
